Time;durP1;ratioP1;P1;durP2;ratioP2;P2;SDS_P1;SDS_P2;PMS_P1;PMS_P2;Temp;Humidity;BMP_temperature;BMP_pressure;BME280_temperature;BME280_humidity;BME280_pressure;Samples;Min_cycle;Max_cycle;Signal;HPM_P1;HPM_P2
2023/04/27 05:00:27;;;;;;;3.97;3.63;;;10.00;97.20;;;;;;1714060;28;20189;-65
2023/04/27 05:01:17;;;;;;;4.45;4.00;;;10.00;97.20;;;;;;1713996;28;20213;-65
2023/04/27 05:02:09;;;;;;;3.97;3.57;;;10.00;97.20;;;;;;1714054;28;20201;-65
2023/04/27 05:03:00;;;;;;;4.35;3.95;;;10.00;97.20;;;;;;1714014;28;20580;-65
2023/04/27 05:03:51;;;;;;;5.33;3.77;;;10.00;97.20;;;;;;1714150;28;20293;-65
2023/04/27 05:04:42;;;;;;;4.65;3.85;;;10.00;97.20;;;;;;1713952;28;20234;-65
2023/04/27 05:05:34;;;;;;;5.27;4.00;;;10.00;97.20;;;;;;1713939;28;20735;-65
2023/04/27 05:06:25;;;;;;;4.93;4.10;;;10.10;97.20;;;;;;1713715;28;20212;-65
2023/04/27 05:07:17;;;;;;;5.70;4.00;;;10.10;97.20;;;;;;1713940;28;20691;-65
2023/04/27 05:08:07;;;;;;;4.70;3.90;;;10.10;97.20;;;;;;1714065;28;20206;-66
2023/04/27 05:08:59;;;;;;;4.90;4.20;;;10.10;97.20;;;;;;1714151;28;20736;-64
2023/04/27 05:09:50;;;;;;;5.40;4.70;;;10.10;97.20;;;;;;1714021;28;20206;-65
2023/04/27 05:10:41;;;;;;;7.57;4.87;;;10.10;97.20;;;;;;1713949;28;20226;-65
2023/04/27 05:11:32;;;;;;;5.22;4.72;;;10.20;97.20;;;;;;1714060;28;20217;-65
2023/04/27 05:12:24;;;;;;;5.73;4.30;;;10.20;97.20;;;;;;1713987;28;20208;-64
2023/04/27 05:13:14;;;;;;;5.25;4.65;;;10.20;97.20;;;;;;1714014;28;20252;-65
2023/04/27 05:14:06;;;;;;;7.10;4.50;;;10.20;97.20;;;;;;1714040;28;20251;-64
2023/04/27 05:14:57;;;;;;;5.20;4.07;;;10.20;97.20;;;;;;1713976;28;20225;-65
2023/04/27 05:15:50;;;;;;;6.40;4.83;;;10.30;97.20;;;;;;1714031;28;20197;-66
2023/04/27 05:16:41;;;;;;;5.45;4.75;;;10.30;97.20;;;;;;1713561;28;20210;-65
2023/04/27 05:17:32;;;;;;;4.53;3.73;;;10.30;97.20;;;;;;1714006;28;20201;-66
2023/04/27 05:18:23;;;;;;;5.03;4.22;;;10.30;97.20;;;;;;1713943;28;20208;-64
2023/04/27 05:19:17;;;;;;;5.40;4.67;;;10.30;97.20;;;;;;1713998;28;20212;-66
2023/04/27 05:20:08;;;;;;;8.65;4.70;;;10.30;97.20;;;;;;1714001;28;20297;-64
2023/04/27 05:21:00;;;;;;;4.38;3.97;;;10.30;97.20;;;;;;1713833;28;20225;-65
2023/04/27 05:21:51;;;;;;;4.78;4.10;;;10.30;97.20;;;;;;1713968;28;20205;-64
2023/04/27 05:22:42;;;;;;;5.07;4.13;;;10.30;97.20;;;;;;1713885;28;20202;-65
2023/04/27 05:23:33;;;;;;;4.68;3.80;;;10.40;97.20;;;;;;1713959;28;20214;-65
2023/04/27 05:24:25;;;;;;;5.83;4.33;;;10.40;97.20;;;;;;1713925;28;20206;-65
2023/04/27 05:25:16;;;;;;;5.00;4.43;;;10.40;97.20;;;;;;1713888;28;20206;-65
2023/04/27 05:26:12;;;;;;;5.50;4.50;;;10.40;97.20;;;;;;1713951;28;20209;-65
2023/04/27 05:27:03;;;;;;;5.43;4.80;;;10.40;97.20;;;;;;1713758;28;20457;-65
2023/04/27 05:27:54;;;;;;;5.80;5.20;;;10.40;97.20;;;;;;1713955;28;20201;-65
2023/04/27 05:28:45;;;;;;;5.97;5.30;;;10.40;97.20;;;;;;1713916;28;20684;-65
2023/04/27 05:29:37;;;;;;;8.23;5.55;;;10.40;97.20;;;;;;1713856;28;20210;-65
2023/04/27 05:30:28;;;;;;;6.50;4.68;;;10.50;97.20;;;;;;1717481;28;20212;-66
2023/04/27 05:31:21;;;;;;;6.40;4.73;;;10.50;97.20;;;;;;1727376;28;20207;-65
2023/04/27 05:32:12;;;;;;;4.97;4.57;;;10.50;97.20;;;;;;1727413;28;20200;-64
2023/04/27 05:33:04;;;;;;;5.07;4.60;;;10.50;97.20;;;;;;1727378;28;20196;-65
2023/04/27 05:33:54;;;;;;;5.85;4.55;;;10.50;97.20;;;;;;1727311;28;20204;-65
2023/04/27 05:34:46;;;;;;;4.20;3.90;;;10.60;97.20;;;;;;1727499;28;20652;-64
2023/04/27 05:35:37;;;;;;;4.85;4.35;;;10.60;97.20;;;;;;1727291;28;20466;-65
2023/04/27 05:36:29;;;;;;;7.37;4.70;;;10.60;97.20;;;;;;1727098;28;20223;-64
2023/04/27 05:37:19;;;;;;;8.10;4.13;;;10.70;97.20;;;;;;1727230;28;20204;-64
2023/04/27 05:38:13;;;;;;;4.10;3.80;;;10.70;97.20;;;;;;1727358;28;20220;-64
2023/04/27 05:39:04;;;;;;;7.55;4.65;;;10.70;97.20;;;;;;1727364;28;20664;-66
2023/04/27 05:39:56;;;;;;;5.07;4.38;;;10.70;97.20;;;;;;1727376;28;20636;-65
2023/04/27 05:40:53;;;;;;;5.47;3.90;;;10.70;97.20;;;;;;1727324;28;20224;-65
2023/04/27 05:41:44;;;;;;;5.05;4.00;;;10.80;97.20;;;;;;1727387;28;20196;-64
2023/04/27 05:42:35;;;;;;;6.78;4.40;;;10.80;97.20;;;;;;1727319;28;20208;-65
2023/04/27 05:43:27;;;;;;;5.60;4.65;;;10.80;97.20;;;;;;1727368;28;20484;-65
2023/04/27 05:44:18;;;;;;;5.32;4.45;;;10.90;97.20;;;;;;1727336;28;20272;-65
2023/04/27 05:45:10;;;;;;;7.90;3.80;;;10.90;97.20;;;;;;1727273;28;20196;-66
2023/04/27 05:46:01;;;;;;;6.70;4.75;;;10.90;97.20;;;;;;1727327;28;20211;-65
2023/04/27 05:46:55;;;;;;;5.90;4.30;;;11.00;97.20;;;;;;1727000;28;20200;-64
2023/04/27 05:47:45;;;;;;;6.82;4.35;;;11.00;97.20;;;;;;1727288;28;20275;-65
2023/04/27 05:48:37;;;;;;;6.13;4.57;;;11.00;97.20;;;;;;1727305;28;20275;-65
2023/04/27 05:49:28;;;;;;;5.40;4.85;;;11.00;97.20;;;;;;1727272;28;20200;-65
2023/04/27 05:50:20;;;;;;;5.83;4.60;;;11.10;97.20;;;;;;1727317;28;20235;-66
2023/04/27 05:51:10;;;;;;;8.85;4.18;;;11.10;97.20;;;;;;1727351;28;20212;-66
2023/04/27 05:52:03;;;;;;;8.13;4.20;;;11.10;97.20;;;;;;1727356;28;20208;-65
2023/04/27 05:52:54;;;;;;;4.65;3.92;;;11.20;97.20;;;;;;1727374;28;20299;-64
2023/04/27 05:53:45;;;;;;;4.03;3.73;;;11.20;97.20;;;;;;1727423;28;20251;-65
2023/04/27 05:54:36;;;;;;;4.25;3.90;;;11.20;97.20;;;;;;1727345;28;20242;-64
2023/04/27 05:55:28;;;;;;;5.17;4.47;;;11.30;97.20;;;;;;1727332;28;20699;-66
2023/04/27 05:56:18;;;;;;;6.28;4.40;;;11.30;97.20;;;;;;1726955;28;20207;-64
2023/04/27 05:57:10;;;;;;;6.33;4.37;;;11.30;97.20;;;;;;1727468;28;20279;-65
2023/04/27 05:58:02;;;;;;;5.78;4.45;;;11.40;97.20;;;;;;1727362;28;20267;-65
2023/04/27 05:58:54;;;;;;;6.72;4.15;;;11.40;97.20;;;;;;1727369;28;20262;-65
2023/04/27 05:59:44;;;;;;;5.28;4.57;;;11.40;97.20;;;;;;1727263;28;20219;-65
2023/04/27 06:00:35;;;;;;;5.80;4.20;;;11.40;97.20;;;;;;1727191;28;20226;-65
2023/04/27 06:01:27;;;;;;;4.77;4.23;;;11.50;97.20;;;;;;1727285;28;20201;-65
2023/04/27 06:02:19;;;;;;;5.30;4.65;;;11.50;97.20;;;;;;1727257;28;20208;-65
2023/04/27 06:03:11;;;;;;;7.15;4.50;;;11.50;97.20;;;;;;1727254;28;20613;-65
2023/04/27 06:04:02;;;;;;;4.75;4.28;;;11.60;97.20;;;;;;1727260;28;20208;-66
2023/04/27 06:04:54;;;;;;;5.90;5.28;;;11.60;97.20;;;;;;1727344;28;20247;-65
2023/04/27 06:05:45;;;;;;;6.70;5.15;;;11.70;97.20;;;;;;1727191;28;20255;-65
2023/04/27 06:06:36;;;;;;;5.80;4.80;;;11.70;97.20;;;;;;1727712;28;20211;-65
2023/04/27 06:07:27;;;;;;;6.85;4.70;;;11.70;97.20;;;;;;1728524;28;20205;-65
2023/04/27 06:08:19;;;;;;;9.40;5.17;;;11.80;97.20;;;;;;1728484;28;20197;-65
2023/04/27 06:09:10;;;;;;;5.90;5.30;;;11.80;97.20;;;;;;1728611;28;20569;-65
2023/04/27 06:10:01;;;;;;;5.73;4.93;;;11.90;97.20;;;;;;1728627;28;20579;-64
2023/04/27 06:10:52;;;;;;;7.55;5.43;;;11.90;97.20;;;;;;1728516;28;20463;-64
2023/04/27 06:11:46;;;;;;;6.47;5.97;;;11.90;97.20;;;;;;1728504;28;20204;-66
2023/04/27 06:12:37;;;;;;;5.25;4.70;;;12.00;97.20;;;;;;1728590;28;20572;-64
2023/04/27 06:13:30;;;;;;;7.53;5.40;;;12.00;97.20;;;;;;1728497;28;20244;-65
2023/04/27 06:14:21;;;;;;;6.78;5.53;;;12.10;97.20;;;;;;1728504;28;20570;-64
2023/04/27 06:15:12;;;;;;;7.30;5.60;;;12.10;97.20;;;;;;1728547;28;20635;-65
2023/04/27 06:16:04;;;;;;;9.23;6.07;;;12.20;97.20;;;;;;1728536;28;20200;-65
2023/04/27 06:16:56;;;;;;;6.78;6.03;;;12.20;97.20;;;;;;1728175;28;20200;-65
2023/04/27 06:17:48;;;;;;;5.68;5.07;;;12.20;97.20;;;;;;1728499;28;20580;-64
2023/04/27 06:18:39;;;;;;;6.82;6.13;;;12.30;97.20;;;;;;1728522;28;20287;-65
2023/04/27 06:19:30;;;;;;;7.63;6.03;;;12.30;97.20;;;;;;1728523;28;20205;-65
2023/04/27 06:20:22;;;;;;;8.03;5.70;;;12.30;97.20;;;;;;1728421;28;20200;-64
2023/04/27 06:21:13;;;;;;;7.07;6.38;;;12.30;97.20;;;;;;1728532;28;20446;-65
2023/04/27 06:22:05;;;;;;;6.73;6.03;;;12.30;97.20;;;;;;1728490;28;20200;-65
2023/04/27 06:22:57;;;;;;;8.75;6.00;;;12.40;97.20;;;;;;1728467;28;20204;-65
2023/04/27 06:23:49;;;;;;;6.53;5.93;;;12.40;97.20;;;;;;1728538;28;20247;-65
2023/04/27 06:24:41;;;;;;;7.32;5.55;;;12.40;97.20;;;;;;1728474;28;20204;-65
2023/04/27 06:25:33;;;;;;;8.60;6.55;;;12.40;97.20;;;;;;1728482;28;20192;-65
2023/04/27 06:26:24;;;;;;;10.32;6.30;;;12.50;97.20;;;;;;1728188;28;20639;-65
2023/04/27 06:27:15;;;;;;;9.23;6.20;;;12.50;97.20;;;;;;1728413;28;20573;-65
2023/04/27 06:28:06;;;;;;;8.00;6.78;;;12.50;97.20;;;;;;1728480;28;20677;-65
2023/04/27 06:28:58;;;;;;;7.13;5.90;;;12.50;97.20;;;;;;1728467;28;20204;-65
2023/04/27 06:29:49;;;;;;;8.85;6.50;;;12.60;97.20;;;;;;1728487;28;20235;-66
2023/04/27 06:30:40;;;;;;;8.63;6.40;;;12.60;97.20;;;;;;1727860;28;20738;-64
2023/04/27 06:31:31;;;;;;;7.55;6.50;;;12.70;97.20;;;;;;1728492;28;20243;-66
2023/04/27 06:32:23;;;;;;;7.83;5.40;;;12.70;97.20;;;;;;1728392;28;20204;-67
2023/04/27 06:33:15;;;;;;;10.02;6.18;;;12.70;97.20;;;;;;1728437;28;20466;-65
2023/04/27 06:34:07;;;;;;;7.70;5.30;;;12.80;97.20;;;;;;1728434;28;20263;-65
2023/04/27 06:34:57;;;;;;;6.20;5.60;;;12.80;97.20;;;;;;1728380;28;20205;-65
2023/04/27 06:35:49;;;;;;;7.03;5.57;;;12.90;97.20;;;;;;1728395;28;20200;-65
2023/04/27 06:36:40;;;;;;;7.97;5.70;;;12.90;97.20;;;;;;1728107;28;20520;-65
2023/04/27 06:37:32;;;;;;;7.82;5.70;;;13.00;97.20;;;;;;1728413;28;20206;-65
2023/04/27 06:38:23;;;;;;;5.25;4.65;;;13.00;97.20;;;;;;1728347;28;20238;-65
2023/04/27 06:39:14;;;;;;;6.50;4.60;;;13.00;97.20;;;;;;1728381;28;20810;-64
2023/04/27 06:40:06;;;;;;;5.30;4.20;;;13.10;97.20;;;;;;1728383;28;20196;-67
2023/04/27 06:40:58;;;;;;;5.72;4.60;;;13.10;97.20;;;;;;1728287;28;20227;-65
2023/04/27 06:41:49;;;;;;;6.72;5.40;;;13.20;97.20;;;;;;1728313;28;20204;-65
2023/04/27 06:42:40;;;;;;;7.70;5.60;;;13.20;97.20;;;;;;1728367;28;20283;-64
2023/04/27 06:43:31;;;;;;;6.40;5.20;;;13.30;97.20;;;;;;1728367;28;20204;-65
2023/04/27 06:44:23;;;;;;;5.27;4.70;;;13.30;97.20;;;;;;1728359;28;20207;-65
2023/04/27 06:45:14;;;;;;;6.22;5.28;;;13.40;97.20;;;;;;1728355;28;20359;-66
2023/04/27 06:46:06;;;;;;;7.63;4.80;;;13.40;97.20;;;;;;1728261;28;20287;-64
2023/04/27 06:46:56;;;;;;;5.25;4.50;;;13.40;97.20;;;;;;1727874;28;20208;-66
2023/04/27 06:47:48;;;;;;;7.00;4.83;;;13.40;97.20;;;;;;1728362;28;20200;-65
2023/04/27 06:48:40;;;;;;;7.40;4.80;;;13.50;97.20;;;;;;1728316;28;20204;-65
2023/04/27 06:49:32;;;;;;;6.25;4.60;;;13.50;97.20;;;;;;1728423;28;20782;-65
2023/04/27 06:50:23;;;;;;;8.70;5.47;;;13.50;97.20;;;;;;1728266;28;20664;-65
2023/04/27 06:51:14;;;;;;;9.20;5.33;;;13.60;97.20;;;;;;1728313;28;20701;-65
2023/04/27 06:52:05;;;;;;;7.78;6.13;;;13.60;97.20;;;;;;1728263;28;20274;-64
2023/04/27 06:52:57;;;;;;;7.40;5.70;;;13.60;97.20;;;;;;1728295;28;20671;-65
2023/04/27 06:53:48;;;;;;;8.77;5.75;;;13.60;97.20;;;;;;1728340;28;20204;-65
2023/04/27 06:54:39;;;;;;;5.23;4.73;;;13.70;97.20;;;;;;1728305;28;20207;-65
2023/04/27 06:55:30;;;;;;;6.18;4.63;;;13.70;97.20;;;;;;1728239;28;20209;-65
2023/04/27 06:56:22;;;;;;;7.53;5.47;;;13.70;97.20;;;;;;1727930;28;20201;-66
2023/04/27 06:57:13;;;;;;;9.00;6.30;;;13.60;97.20;;;;;;1728273;28;20216;-64
2023/04/27 06:58:05;;;;;;;5.80;5.20;;;13.60;97.20;;;;;;1728298;28;20246;-65
2023/04/27 06:58:55;;;;;;;5.65;5.10;;;13.60;97.20;;;;;;1728297;28;20238;-68
2023/04/27 06:59:47;;;;;;;8.00;5.70;;;13.60;97.20;;;;;;1728218;28;20209;-65
2023/04/27 07:00:38;;;;;;;6.28;5.03;;;13.70;97.20;;;;;;1728195;28;20315;-65
2023/04/27 07:01:30;;;;;;;5.50;4.77;;;13.70;97.20;;;;;;1728223;28;20212;-65
2023/04/27 07:02:20;;;;;;;8.38;5.45;;;13.70;97.20;;;;;;1728234;28;20200;-64
2023/04/27 07:03:13;;;;;;;10.30;4.87;;;13.70;97.20;;;;;;1728282;28;20196;-65
2023/04/27 07:04:05;;;;;;;8.32;5.07;;;13.80;97.20;;;;;;1728220;28;20243;-64
2023/04/27 07:04:57;;;;;;;5.75;5.15;;;13.80;97.20;;;;;;1728218;28;20208;-65
2023/04/27 07:05:47;;;;;;;5.55;4.75;;;13.90;97.20;;;;;;1728193;28;20211;-65
2023/04/27 07:06:39;;;;;;;6.47;4.83;;;13.90;97.20;;;;;;1727917;28;20211;-64
2023/04/27 07:07:30;;;;;;;7.68;5.47;;;14.00;97.20;;;;;;1728124;28;20443;-65
2023/04/27 07:08:21;;;;;;;6.57;5.20;;;14.10;97.20;;;;;;1728199;28;20204;-65
2023/04/27 07:09:12;;;;;;;5.82;4.47;;;14.10;97.20;;;;;;1728198;28;20196;-65
2023/04/27 07:10:05;;;;;;;10.10;5.43;;;14.20;97.20;;;;;;1728156;28;20203;-65
2023/04/27 07:10:55;;;;;;;5.22;4.70;;;14.20;97.20;;;;;;1728039;28;20246;-66
2023/04/27 07:11:47;;;;;;;6.57;5.10;;;14.30;97.20;;;;;;1728115;28;20214;-65
2023/04/27 07:12:40;;;;;;;7.78;4.70;;;14.30;97.20;;;;;;1728093;28;20207;-65
2023/04/27 07:13:31;;;;;;;7.30;5.80;;;14.40;97.20;;;;;;1728139;28;20300;-65
2023/04/27 07:14:22;;;;;;;7.80;5.30;;;14.50;97.20;;;;;;1728189;28;20204;-64
2023/04/27 07:15:13;;;;;;;7.32;5.00;;;14.50;97.20;;;;;;1728257;28;20458;-66
2023/04/27 07:16:06;;;;;;;5.20;4.50;;;14.50;97.20;;;;;;1728143;28;20208;-65
2023/04/27 07:16:57;;;;;;;7.70;5.50;;;14.60;97.20;;;;;;1727690;28;20201;-65
2023/04/27 07:17:48;;;;;;;7.73;4.97;;;14.60;97.20;;;;;;1727492;28;20204;-66
2023/04/27 07:18:40;;;;;;;5.78;4.60;;;14.60;97.20;;;;;;1727733;28;20205;-64
2023/04/27 07:19:33;;;;;;;8.18;5.35;;;14.60;97.20;;;;;;1728198;28;20201;-65
2023/04/27 07:20:24;;;;;;;8.90;5.30;;;14.70;97.20;;;;;;1728021;28;20239;-65
2023/04/27 07:21:16;;;;;;;9.73;5.40;;;14.70;97.20;;;;;;1728101;28;20660;-65
2023/04/27 07:22:06;;;;;;;6.63;4.70;;;14.70;97.20;;;;;;1728154;28;20569;-64
2023/04/27 07:22:58;;;;;;;5.47;4.77;;;14.80;97.20;;;;;;1728149;28;20303;-64
2023/04/27 07:23:49;;;;;;;5.93;4.90;;;14.80;97.20;;;;;;1728145;28;20208;-65
2023/04/27 07:24:41;;;;;;;5.10;4.60;;;14.80;97.20;;;;;;1728043;28;20197;-66
2023/04/27 07:25:32;;;;;;;7.18;5.05;;;14.80;97.20;;;;;;1728168;28;20712;-65
2023/04/27 07:26:23;;;;;;;5.20;4.70;;;14.70;97.20;;;;;;1727664;28;20234;-64
2023/04/27 07:27:15;;;;;;;7.03;4.25;;;14.70;97.20;;;;;;1728038;28;20458;-65
2023/04/27 07:28:06;;;;;;;5.93;4.50;;;14.60;97.20;;;;;;1728061;28;20208;-66
2023/04/27 07:28:57;;;;;;;5.60;4.37;;;14.60;97.20;;;;;;1728064;28;20204;-65
2023/04/27 07:29:48;;;;;;;7.93;4.60;;;14.60;97.20;;;;;;1727998;28;20211;-66
2023/04/27 07:30:40;;;;;;;5.07;4.57;;;14.60;97.20;;;;;;1727462;28;20233;-65
2023/04/27 07:31:32;;;;;;;9.35;4.50;;;14.60;97.20;;;;;;1728144;28;20243;-65
2023/04/27 07:32:23;;;;;;;7.25;4.60;;;14.70;97.20;;;;;;1728049;28;20204;-65
2023/04/27 07:33:14;;;;;;;7.10;4.45;;;14.70;97.20;;;;;;1728042;28;20258;-68
2023/04/27 07:34:06;;;;;;;9.37;5.03;;;14.70;97.20;;;;;;1728181;28;20204;-65
2023/04/27 07:34:58;;;;;;;5.30;4.20;;;14.70;97.20;;;;;;1728052;28;20443;-66
2023/04/27 07:35:52;;;;;;;4.93;4.40;;;14.70;97.20;;;;;;1728032;28;20211;-65
2023/04/27 07:36:44;;;;;;;7.00;4.93;;;14.70;97.20;;;;;;1727637;28;20246;-65
2023/04/27 07:37:36;;;;;;;9.18;4.82;;;14.70;97.20;;;;;;1727923;28;20251;-65
2023/04/27 07:38:28;;;;;;;5.10;4.13;;;14.80;97.20;;;;;;1728000;28;20212;-65
2023/04/27 07:39:20;;;;;;;8.23;4.80;;;14.80;97.20;;;;;;1727967;28;20722;-65
2023/04/27 07:40:15;;;;;;;7.38;4.65;;;14.80;97.20;;;;;;1727910;28;20343;-65
2023/04/27 07:41:06;;;;;;;6.07;4.80;;;14.90;97.20;;;;;;1728045;28;20660;-65
2023/04/27 07:41:58;;;;;;;6.43;4.53;;;14.90;97.20;;;;;;1727977;28;20622;-65
2023/04/27 07:42:50;;;;;;;5.63;4.72;;;14.90;97.20;;;;;;1727925;28;20451;-66
2023/04/27 07:43:41;;;;;;;6.20;4.63;;;15.00;97.20;;;;;;1727977;28;20570;-65
2023/04/27 07:44:32;;;;;;;6.47;4.70;;;15.00;97.20;;;;;;1727962;28;20197;-65
2023/04/27 07:45:30;;;;;;;9.23;4.38;;;15.10;97.20;;;;;;1727953;28;20216;-64
2023/04/27 07:46:22;;;;;;;4.93;3.88;;;15.20;97.20;;;;;;1727535;28;20225;-65
2023/04/27 07:47:13;;;;;;;6.78;5.22;;;15.20;97.20;;;;;;1727965;28;20734;-65
2023/04/27 07:48:05;;;;;;;7.10;4.67;;;15.20;97.20;;;;;;1727995;28;20618;-65
2023/04/27 07:48:58;;;;;;;4.68;4.28;;;15.20;97.20;;;;;;1727886;28;20208;-64
2023/04/27 07:49:49;;;;;;;7.18;4.90;;;15.30;97.20;;;;;;1727958;28;20723;-67
2023/04/27 07:50:41;;;;;;;6.68;5.30;;;15.30;97.20;;;;;;1727828;28;20227;-65
2023/04/27 07:51:33;;;;;;;5.15;4.65;;;15.30;97.20;;;;;;1727946;28;20212;-65
2023/04/27 07:52:24;;;;;;;6.32;4.78;;;15.30;97.20;;;;;;1727947;28;20208;-64
2023/04/27 07:53:16;;;;;;;5.30;4.00;;;15.40;97.20;;;;;;1727983;28;20204;-65
2023/04/27 07:54:06;;;;;;;6.43;4.18;;;15.40;97.20;;;;;;1728070;28;20960;-64
2023/04/27 07:54:58;;;;;;;8.93;5.00;;;15.50;97.20;;;;;;1727961;28;20572;-65
2023/04/27 07:55:49;;;;;;;6.43;4.50;;;15.50;97.20;;;;;;1727914;28;20232;-65
2023/04/27 07:56:42;;;;;;;5.83;4.33;;;15.60;97.20;;;;;;1727580;28;20193;-65
2023/04/27 07:57:33;;;;;;;6.63;4.53;;;15.60;97.20;;;;;;1727853;28;20200;-65
2023/04/27 07:58:25;;;;;;;6.33;4.30;;;15.60;97.20;;;;;;1727947;28;20200;-64
2023/04/27 07:59:15;;;;;;;6.63;4.50;;;15.60;97.20;;;;;;1727904;28;20346;-65
2023/04/27 08:00:09;;;;;;;4.63;4.20;;;15.60;97.20;;;;;;1727975;28;20656;-65
2023/04/27 08:01:01;;;;;;;5.75;4.03;;;15.70;97.20;;;;;;1727900;28;20243;-65
2023/04/27 08:01:52;;;;;;;7.30;3.65;;;15.70;97.20;;;;;;1727957;28;20192;-64
2023/04/27 08:02:44;;;;;;;5.03;3.72;;;15.70;97.20;;;;;;1727854;28;20300;-66
2023/04/27 08:03:35;;;;;;;6.35;3.67;;;15.80;97.20;;;;;;1728016;28;20299;-66
2023/04/27 08:04:27;;;;;;;6.10;3.93;;;15.80;97.20;;;;;;1727833;28;20204;-65
2023/04/27 08:05:18;;;;;;;5.10;4.18;;;15.90;97.20;;;;;;1727948;28;20240;-65
2023/04/27 08:06:11;;;;;;;7.20;3.90;;;15.90;97.20;;;;;;1728047;28;20204;-65
2023/04/27 08:07:01;;;;;;;4.75;3.50;;;16.00;97.20;;;;;;1727426;28;20456;-65
2023/04/27 08:07:53;;;;;;;4.40;3.73;;;16.10;97.20;;;;;;1727834;28;20292;-65
2023/04/27 08:08:44;;;;;;;4.35;3.33;;;16.20;97.20;;;;;;1727900;28;20200;-65
2023/04/27 08:09:36;;;;;;;7.23;3.80;;;16.30;97.20;;;;;;1727945;28;20213;-66
2023/04/27 08:10:27;;;;;;;6.03;4.00;;;16.40;97.20;;;;;;1727732;28;20856;-65
2023/04/27 08:11:18;;;;;;;4.88;3.33;;;16.50;97.20;;;;;;1727763;28;20197;-65
2023/04/27 08:12:09;;;;;;;6.60;4.00;;;16.60;97.20;;;;;;1727815;28;20286;-66
2023/04/27 08:13:01;;;;;;;5.93;4.00;;;16.70;97.20;;;;;;1727818;28;20254;-65
2023/04/27 08:13:52;;;;;;;5.88;4.10;;;16.80;97.20;;;;;;1727790;28;20207;-66
2023/04/27 08:14:43;;;;;;;4.10;3.53;;;16.80;97.20;;;;;;1727792;28;20227;-65
2023/04/27 08:15:34;;;;;;;5.65;3.88;;;16.80;97.20;;;;;;1727742;28;20295;-65
2023/04/27 08:16:26;;;;;;;6.15;3.80;;;16.90;97.20;;;;;;1727443;28;20205;-64
2023/04/27 08:17:18;;;;;;;4.88;4.32;;;17.00;97.20;;;;;;1727758;28;20583;-65
2023/04/27 08:18:09;;;;;;;4.63;3.95;;;17.00;97.20;;;;;;1727815;28;20201;-65
2023/04/27 08:19:00;;;;;;;5.20;4.57;;;17.10;97.20;;;;;;1727790;28;20196;-66
2023/04/27 08:19:51;;;;;;;8.23;4.15;;;17.20;97.20;;;;;;1727792;28;20208;-65
2023/04/27 08:20:43;;;;;;;5.43;4.30;;;17.20;97.20;;;;;;1727629;28;20295;-66
2023/04/27 08:21:35;;;;;;;6.35;3.75;;;17.20;97.20;;;;;;1727792;28;20455;-65
2023/04/27 08:22:27;;;;;;;5.28;3.70;;;17.30;97.20;;;;;;1727739;28;20795;-66
2023/04/27 08:23:18;;;;;;;5.10;4.15;;;17.40;97.20;;;;;;1727808;28;20200;-65
2023/04/27 08:24:09;;;;;;;4.20;3.70;;;17.40;97.20;;;;;;1727681;28;20207;-66
2023/04/27 08:25:02;;;;;;;4.47;4.03;;;17.50;97.20;;;;;;1727689;28;20686;-65
2023/04/27 08:25:54;;;;;;;6.55;4.13;;;17.60;97.20;;;;;;1727851;28;20196;-65
2023/04/27 08:26:45;;;;;;;4.65;3.60;;;17.80;97.20;;;;;;1727208;28;20243;-69
2023/04/27 08:27:39;;;;;;;10.82;3.90;;;17.90;97.20;;;;;;1727655;28;20805;-66
2023/04/27 08:28:29;;;;;;;4.68;3.95;;;17.90;97.20;;;;;;1727668;28;20625;-65
2023/04/27 08:29:21;;;;;;;4.47;3.73;;;18.00;97.20;;;;;;1727330;28;20200;-65
2023/04/27 08:30:12;;;;;;;7.90;4.35;;;18.10;97.20;;;;;;1727577;28;20200;-66
2023/04/27 08:31:04;;;;;;;5.32;4.05;;;18.20;97.20;;;;;;1726865;28;20247;-66
2023/04/27 08:31:58;;;;;;;4.03;3.40;;;18.30;97.20;;;;;;1727625;28;20255;-66
2023/04/27 08:32:50;;;;;;;4.30;3.80;;;18.50;97.20;;;;;;1727635;28;20208;-66
2023/04/27 08:33:41;;;;;;;6.60;4.05;;;18.60;97.20;;;;;;1727605;28;20696;-66
2023/04/27 08:34:32;;;;;;;5.60;4.10;;;18.70;97.20;;;;;;1727694;28;20595;-64
2023/04/27 08:35:23;;;;;;;7.43;4.10;;;18.90;97.20;;;;;;1727648;28;20204;-64
2023/04/27 08:36:15;;;;;;;7.87;4.60;;;18.90;97.20;;;;;;1727418;28;20192;-70
2023/04/27 08:37:07;;;;;;;5.47;4.20;;;19.00;97.20;;;;;;1727577;28;20205;-65
2023/04/27 08:37:59;;;;;;;7.35;3.85;;;19.00;97.20;;;;;;1727642;28;20663;-65
2023/04/27 08:38:49;;;;;;;4.78;4.18;;;19.10;97.20;;;;;;1727607;28;20208;-65
2023/04/27 08:39:41;;;;;;;9.27;3.80;;;19.20;97.20;;;;;;1727574;28;20200;-66
2023/04/27 08:40:32;;;;;;;5.47;4.43;;;19.30;97.20;;;;;;1727698;28;20974;-64
2023/04/27 08:41:24;;;;;;;5.47;4.00;;;19.30;97.20;;;;;;1727619;28;20578;-65
2023/04/27 08:42:15;;;;;;;6.28;4.10;;;19.30;97.20;;;;;;1727676;28;20220;-65
2023/04/27 08:43:08;;;;;;;4.87;4.37;;;19.30;97.20;;;;;;1727668;28;20275;-65
2023/04/27 08:43:59;;;;;;;6.10;4.30;;;19.40;97.20;;;;;;1727614;28;20447;-66
2023/04/27 08:44:51;;;;;;;5.67;4.83;;;19.40;97.20;;;;;;1727554;28;20254;-65
2023/04/27 08:45:47;;;;;;;6.55;4.15;;;19.40;97.20;;;;;;1727585;28;20234;-64
2023/04/27 08:46:41;;;;;;;6.03;4.25;;;19.40;97.20;;;;;;1727193;28;20235;-65
2023/04/27 08:47:31;;;;;;;8.30;4.32;;;19.40;97.20;;;;;;1727499;28;20606;-64
2023/04/27 08:48:23;;;;;;;5.50;4.43;;;19.30;97.20;;;;;;1727539;28;20613;-65
2023/04/27 08:49:14;;;;;;;8.30;5.20;;;19.30;97.20;;;;;;1727640;28;20204;-65
2023/04/27 08:50:07;;;;;;;6.43;4.90;;;19.30;97.20;;;;;;1727577;28;20205;-65
2023/04/27 08:50:59;;;;;;;9.65;5.28;;;19.30;97.20;;;;;;1727513;28;20499;-66
2023/04/27 08:51:51;;;;;;;7.30;5.05;;;19.40;97.20;;;;;;1727576;28;20228;-65
2023/04/27 08:52:45;;;;;;;6.20;5.60;;;19.50;97.20;;;;;;1727516;28;20220;-65
2023/04/27 08:53:36;;;;;;;5.50;4.97;;;19.60;97.20;;;;;;1727547;28;20220;-65
2023/04/27 08:54:27;;;;;;;5.57;4.97;;;19.70;97.20;;;;;;1727538;28;20201;-66
2023/04/27 08:55:19;;;;;;;4.87;4.40;;;19.80;97.20;;;;;;1727578;28;20205;-66
2023/04/27 08:56:10;;;;;;;6.25;5.28;;;20.00;97.20;;;;;;1727492;28;20359;-68
2023/04/27 08:57:02;;;;;;;7.90;5.13;;;20.10;97.20;;;;;;1727213;28;20811;-65
2023/04/27 08:57:55;;;;;;;7.05;5.57;;;20.20;97.20;;;;;;1727507;28;20447;-65
2023/04/27 08:58:46;;;;;;;7.28;5.05;;;20.20;97.20;;;;;;1727538;28;20204;-65
2023/04/27 08:59:37;;;;;;;6.47;5.80;;;20.30;97.20;;;;;;1727517;28;20228;-66
2023/04/27 09:00:39;;;;;;;7.38;5.47;;;20.30;97.20;;;;;;1727443;28;20204;-65
2023/04/27 09:01:31;;;;;;;7.13;5.10;;;20.40;97.20;;;;;;1727667;28;20236;-65
2023/04/27 09:02:23;;;;;;;5.85;5.15;;;20.50;97.20;;;;;;1727524;28;20193;-64
2023/04/27 09:03:25;;;;;;;7.60;5.15;;;20.50;97.20;;;;;;1727596;28;20217;-64
2023/04/27 09:04:16;;;;;;;6.00;4.80;;;20.60;97.20;;;;;;1727581;28;20215;-65
2023/04/27 09:05:15;;;;;;;6.10;4.65;;;20.80;97.20;;;;;;1727448;28;20207;-67
2023/04/27 09:06:07;;;;;;;6.65;4.90;;;20.90;97.20;;;;;;1727540;28;20204;-65
2023/04/27 09:07:09;;;;;;;6.07;5.40;;;20.90;97.20;;;;;;1726988;28;20255;-65
2023/04/27 09:08:04;;;;;;;6.53;5.80;;;20.90;97.20;;;;;;1727521;28;20228;-64
2023/04/27 09:08:56;;;;;;;5.90;4.55;;;21.00;97.20;;;;;;1727581;28;20213;-65
2023/04/27 09:09:47;;;;;;;6.45;5.78;;;21.00;97.20;;;;;;1727489;28;20232;-64
2023/04/27 09:10:46;;;;;;;6.20;4.63;;;21.00;97.20;;;;;;1727387;28;20220;-65
2023/04/27 09:11:37;;;;;;;8.98;5.07;;;21.10;97.20;;;;;;1727494;28;20201;-67
2023/04/27 09:12:29;;;;;;;13.48;5.20;;;21.10;97.20;;;;;;1727396;28;20311;-66
2023/04/27 09:13:20;;;;;;;6.97;5.20;;;21.20;97.20;;;;;;1727400;28;20224;-67
2023/04/27 09:14:18;;;;;;;6.43;4.50;;;21.30;97.20;;;;;;1727453;28;20699;-67
2023/04/27 09:15:09;;;;;;;7.60;4.93;;;21.40;97.20;;;;;;1727399;28;20223;-67
2023/04/27 09:16:00;;;;;;;7.80;4.50;;;21.50;97.20;;;;;;1727472;28;20200;-67
2023/04/27 09:16:56;;;;;;;9.70;5.35;;;21.50;97.20;;;;;;1727079;28;20211;-66
2023/04/27 09:17:53;;;;;;;5.60;5.13;;;21.60;97.20;;;;;;1727535;28;20204;-65
2023/04/27 09:18:45;;;;;;;5.32;4.38;;;21.70;97.20;;;;;;1727538;28;20239;-64
2023/04/27 09:19:36;;;;;;;7.72;4.75;;;21.80;97.20;;;;;;1727522;28;20211;-66
2023/04/27 09:20:28;;;;;;;7.13;5.00;;;21.90;97.20;;;;;;1727329;28;20197;-65
2023/04/27 09:21:23;;;;;;;5.43;4.93;;;21.90;97.20;;;;;;1727449;28;20446;-65
2023/04/27 09:22:14;;;;;;;8.38;4.50;;;22.00;97.20;;;;;;1727493;28;20258;-65
2023/04/27 09:23:06;;;;;;;5.50;5.00;;;22.10;97.20;;;;;;1727459;28;20215;-65
2023/04/27 09:23:58;;;;;;;8.88;7.25;;;22.20;97.20;;;;;;1727337;28;20696;-65
2023/04/27 09:24:50;;;;;;;7.72;6.10;;;22.40;97.20;;;;;;1727339;28;20227;-65
2023/04/27 09:25:42;;;;;;;7.20;6.35;;;22.50;97.20;;;;;;1727395;28;20636;-65
2023/04/27 09:26:32;;;;;;;7.45;5.15;;;22.70;97.20;;;;;;1727069;28;20213;-65
2023/04/27 09:27:24;;;;;;;6.90;4.70;;;22.90;97.20;;;;;;1727316;28;20230;-65
2023/04/27 09:28:15;;;;;;;5.88;4.88;;;23.00;97.20;;;;;;1727353;28;20463;-68
2023/04/27 09:29:07;;;;;;;7.20;5.60;;;23.10;97.20;;;;;;1727331;28;20211;-66